sensor_id;sensor_type;location;lat;lon;timestamp;temperature;humidity
43999;DHT22;51319;52.162;5.302;2023-04-03T00:00:33;3.50;77.10
43999;DHT22;51319;52.162;5.302;2023-04-03T00:03:01;3.50;77.20
43999;DHT22;51319;52.162;5.302;2023-04-03T00:05:28;3.50;77.30
43999;DHT22;51319;52.162;5.302;2023-04-03T00:07:54;3.40;77.20
43999;DHT22;51319;52.162;5.302;2023-04-03T00:10:22;3.40;77.30
43999;DHT22;51319;52.162;5.302;2023-04-03T00:12:49;3.40;77.40
43999;DHT22;51319;52.162;5.302;2023-04-03T00:15:16;3.40;77.40
43999;DHT22;51319;52.162;5.302;2023-04-03T00:17:43;3.40;77.50
43999;DHT22;51319;52.162;5.302;2023-04-03T00:20:10;3.30;77.60
43999;DHT22;51319;52.162;5.302;2023-04-03T00:22:37;3.30;77.70
43999;DHT22;51319;52.162;5.302;2023-04-03T00:25:04;3.30;77.70
43999;DHT22;51319;52.162;5.302;2023-04-03T00:27:31;3.20;77.80
43999;DHT22;51319;52.162;5.302;2023-04-03T00:29:58;3.20;77.90
43999;DHT22;51319;52.162;5.302;2023-04-03T00:32:25;3.20;78.00
43999;DHT22;51319;52.162;5.302;2023-04-03T00:34:52;3.20;78.10
43999;DHT22;51319;52.162;5.302;2023-04-03T00:37:19;3.10;78.20
43999;DHT22;51319;52.162;5.302;2023-04-03T00:39:46;3.10;78.30
43999;DHT22;51319;52.162;5.302;2023-04-03T00:42:13;3.00;78.40
43999;DHT22;51319;52.162;5.302;2023-04-03T00:47:10;3.00;78.70
43999;DHT22;51319;52.162;5.302;2023-04-03T00:49:38;2.90;78.90
43999;DHT22;51319;52.162;5.302;2023-04-03T00:52:10;2.90;79.10
43999;DHT22;51319;52.162;5.302;2023-04-03T00:54:41;2.90;79.30
43999;DHT22;51319;52.162;5.302;2023-04-03T00:57:10;2.80;79.30
43999;DHT22;51319;52.162;5.302;2023-04-03T00:59:50;2.80;79.50
43999;DHT22;51319;52.162;5.302;2023-04-03T01:02:18;2.80;79.70
43999;DHT22;51319;52.162;5.302;2023-04-03T01:04:45;2.70;79.70
43999;DHT22;51319;52.162;5.302;2023-04-03T01:07:22;2.70;79.90
43999;DHT22;51319;52.162;5.302;2023-04-03T01:09:53;2.70;80.10
43999;DHT22;51319;52.162;5.302;2023-04-03T01:12:32;2.60;80.20
43999;DHT22;51319;52.162;5.302;2023-04-03T01:15:06;2.60;80.30
43999;DHT22;51319;52.162;5.302;2023-04-03T01:17:36;2.60;80.50
43999;DHT22;51319;52.162;5.302;2023-04-03T01:25:33;2.50;80.90
43999;DHT22;51319;52.162;5.302;2023-04-03T01:28:00;2.50;81.10
43999;DHT22;51319;52.162;5.302;2023-04-03T01:30:36;2.40;81.20
43999;DHT22;51319;52.162;5.302;2023-04-03T01:33:06;2.40;81.50
43999;DHT22;51319;52.162;5.302;2023-04-03T01:35:33;2.40;81.70
43999;DHT22;51319;52.162;5.302;2023-04-03T01:38:00;2.30;81.80
43999;DHT22;51319;52.162;5.302;2023-04-03T01:40:27;2.30;82.10
43999;DHT22;51319;52.162;5.302;2023-04-03T01:42:53;2.30;82.40
43999;DHT22;51319;52.162;5.302;2023-04-03T01:45:20;2.30;82.60
43999;DHT22;51319;52.162;5.302;2023-04-03T01:47:49;2.20;82.90
43999;DHT22;51319;52.162;5.302;2023-04-03T01:50:16;2.20;83.10
43999;DHT22;51319;52.162;5.302;2023-04-03T01:52:42;2.20;83.40
43999;DHT22;51319;52.162;5.302;2023-04-03T01:55:09;2.10;83.60
43999;DHT22;51319;52.162;5.302;2023-04-03T01:57:36;2.10;83.90
43999;DHT22;51319;52.162;5.302;2023-04-03T02:00:04;2.10;83.90
43999;DHT22;51319;52.162;5.302;2023-04-03T02:02:32;2.00;84.10
43999;DHT22;51319;52.162;5.302;2023-04-03T02:04:59;2.00;84.40
43999;DHT22;51319;52.162;5.302;2023-04-03T02:07:26;2.00;84.50
43999;DHT22;51319;52.162;5.302;2023-04-03T02:09:54;2.00;84.70
43999;DHT22;51319;52.162;5.302;2023-04-03T02:12:20;2.00;85.00
43999;DHT22;51319;52.162;5.302;2023-04-03T02:14:47;2.00;85.20
43999;DHT22;51319;52.162;5.302;2023-04-03T02:17:15;1.90;85.30
43999;DHT22;51319;52.162;5.302;2023-04-03T02:19:42;1.90;85.60
43999;DHT22;51319;52.162;5.302;2023-04-03T02:22:09;1.90;85.70
43999;DHT22;51319;52.162;5.302;2023-04-03T02:24:36;1.80;85.80
43999;DHT22;51319;52.162;5.302;2023-04-03T02:27:03;1.80;86.00
43999;DHT22;51319;52.162;5.302;2023-04-03T02:29:29;1.80;86.30
43999;DHT22;51319;52.162;5.302;2023-04-03T02:31:56;1.80;86.60
43999;DHT22;51319;52.162;5.302;2023-04-03T02:34:23;1.80;86.70
43999;DHT22;51319;52.162;5.302;2023-04-03T02:36:51;1.70;86.90
43999;DHT22;51319;52.162;5.302;2023-04-03T02:39:17;1.70;87.10
43999;DHT22;51319;52.162;5.302;2023-04-03T02:41:46;1.70;87.40
43999;DHT22;51319;52.162;5.302;2023-04-03T02:44:13;1.70;87.60
43999;DHT22;51319;52.162;5.302;2023-04-03T02:46:40;1.70;87.90
43999;DHT22;51319;52.162;5.302;2023-04-03T02:49:07;1.60;88.10
43999;DHT22;51319;52.162;5.302;2023-04-03T02:51:34;1.60;88.30
43999;DHT22;51319;52.162;5.302;2023-04-03T02:54:01;1.60;88.60
43999;DHT22;51319;52.162;5.302;2023-04-03T02:56:28;1.60;88.90
43999;DHT22;51319;52.162;5.302;2023-04-03T02:58:55;1.60;89.10
43999;DHT22;51319;52.162;5.302;2023-04-03T03:01:22;1.60;89.30
43999;DHT22;51319;52.162;5.302;2023-04-03T03:03:49;1.60;89.60
43999;DHT22;51319;52.162;5.302;2023-04-03T03:06:17;1.60;89.70
43999;DHT22;51319;52.162;5.302;2023-04-03T03:08:44;1.60;89.80
43999;DHT22;51319;52.162;5.302;2023-04-03T03:11:11;1.50;90.00
43999;DHT22;51319;52.162;5.302;2023-04-03T03:13:38;1.50;90.00
43999;DHT22;51319;52.162;5.302;2023-04-03T03:16:06;1.50;90.10
43999;DHT22;51319;52.162;5.302;2023-04-03T03:18:33;1.50;90.20
43999;DHT22;51319;52.162;5.302;2023-04-03T03:21:02;1.50;90.30
43999;DHT22;51319;52.162;5.302;2023-04-03T03:23:30;1.50;90.40
43999;DHT22;51319;52.162;5.302;2023-04-03T03:26:04;1.50;90.50
43999;DHT22;51319;52.162;5.302;2023-04-03T03:28:32;1.40;90.60
43999;DHT22;51319;52.162;5.302;2023-04-03T03:31:00;1.40;90.70
43999;DHT22;51319;52.162;5.302;2023-04-03T03:33:27;1.40;90.80
43999;DHT22;51319;52.162;5.302;2023-04-03T03:35:54;1.40;90.90
43999;DHT22;51319;52.162;5.302;2023-04-03T03:38:22;1.40;91.00
43999;DHT22;51319;52.162;5.302;2023-04-03T03:40:50;1.30;91.10
43999;DHT22;51319;52.162;5.302;2023-04-03T03:43:17;1.30;91.20
43999;DHT22;51319;52.162;5.302;2023-04-03T03:45:45;1.30;91.30
43999;DHT22;51319;52.162;5.302;2023-04-03T03:48:12;1.30;91.40
43999;DHT22;51319;52.162;5.302;2023-04-03T03:50:39;1.30;91.50
43999;DHT22;51319;52.162;5.302;2023-04-03T03:53:06;1.30;91.60
43999;DHT22;51319;52.162;5.302;2023-04-03T03:55:33;1.20;91.80
43999;DHT22;51319;52.162;5.302;2023-04-03T03:58:00;1.30;91.90
43999;DHT22;51319;52.162;5.302;2023-04-03T04:00:28;1.30;91.90
43999;DHT22;51319;52.162;5.302;2023-04-03T04:02:55;1.20;92.00
43999;DHT22;51319;52.162;5.302;2023-04-03T04:05:25;1.20;92.20
43999;DHT22;51319;52.162;5.302;2023-04-03T04:07:52;1.10;92.30
43999;DHT22;51319;52.162;5.302;2023-04-03T04:10:18;1.20;92.60
43999;DHT22;51319;52.162;5.302;2023-04-03T04:12:45;1.20;92.60
43999;DHT22;51319;52.162;5.302;2023-04-03T04:15:12;1.20;92.70
43999;DHT22;51319;52.162;5.302;2023-04-03T04:17:39;1.10;92.80
43999;DHT22;51319;52.162;5.302;2023-04-03T04:20:07;1.10;92.90
43999;DHT22;51319;52.162;5.302;2023-04-03T04:22:35;1.10;93.10
43999;DHT22;51319;52.162;5.302;2023-04-03T04:25:02;1.00;93.20
43999;DHT22;51319;52.162;5.302;2023-04-03T04:27:29;1.00;93.40
43999;DHT22;51319;52.162;5.302;2023-04-03T04:29:55;1.00;93.50
43999;DHT22;51319;52.162;5.302;2023-04-03T04:32:24;0.90;93.60
43999;DHT22;51319;52.162;5.302;2023-04-03T04:34:51;0.90;93.80
43999;DHT22;51319;52.162;5.302;2023-04-03T04:37:18;0.90;94.00
43999;DHT22;51319;52.162;5.302;2023-04-03T04:39:48;0.90;94.10
43999;DHT22;51319;52.162;5.302;2023-04-03T04:42:16;0.80;94.20
43999;DHT22;51319;52.162;5.302;2023-04-03T04:44:43;0.90;94.40
43999;DHT22;51319;52.162;5.302;2023-04-03T04:47:10;0.80;94.40
43999;DHT22;51319;52.162;5.302;2023-04-03T04:49:37;0.80;94.60
43999;DHT22;51319;52.162;5.302;2023-04-03T04:52:04;0.80;94.80
43999;DHT22;51319;52.162;5.302;2023-04-03T04:54:32;0.80;95.00
43999;DHT22;51319;52.162;5.302;2023-04-03T04:56:59;0.80;95.10
43999;DHT22;51319;52.162;5.302;2023-04-03T04:59:26;0.70;95.20
43999;DHT22;51319;52.162;5.302;2023-04-03T05:01:53;0.80;95.50
43999;DHT22;51319;52.162;5.302;2023-04-03T05:04:20;0.80;95.50
43999;DHT22;51319;52.162;5.302;2023-04-03T05:06:47;0.70;95.60
43999;DHT22;51319;52.162;5.302;2023-04-03T05:09:14;0.70;95.70
43999;DHT22;51319;52.162;5.302;2023-04-03T05:11:41;0.80;95.90
43999;DHT22;51319;52.162;5.302;2023-04-03T05:14:09;0.70;96.10
43999;DHT22;51319;52.162;5.302;2023-04-03T05:16:36;0.70;96.20
43999;DHT22;51319;52.162;5.302;2023-04-03T05:19:03;0.70;96.40
43999;DHT22;51319;52.162;5.302;2023-04-03T05:21:31;0.70;96.50
43999;DHT22;51319;52.162;5.302;2023-04-03T05:24:01;0.70;96.70
43999;DHT22;51319;52.162;5.302;2023-04-03T05:26:36;0.70;96.90
43999;DHT22;51319;52.162;5.302;2023-04-03T05:29:03;0.70;97.00
43999;DHT22;51319;52.162;5.302;2023-04-03T05:31:30;0.80;97.10
43999;DHT22;51319;52.162;5.302;2023-04-03T05:33:58;0.70;97.20
43999;DHT22;51319;52.162;5.302;2023-04-03T05:36:25;0.80;97.30
43999;DHT22;51319;52.162;5.302;2023-04-03T05:38:52;1.10;97.90
43999;DHT22;51319;52.162;5.302;2023-04-03T05:41:20;1.70;97.80
43999;DHT22;51319;52.162;5.302;2023-04-03T05:43:50;2.10;97.10
43999;DHT22;51319;52.162;5.302;2023-04-03T05:46:18;2.60;96.50
43999;DHT22;51319;52.162;5.302;2023-04-03T05:48:47;3.00;95.80
43999;DHT22;51319;52.162;5.302;2023-04-03T05:51:22;3.40;95.00
43999;DHT22;51319;52.162;5.302;2023-04-03T05:53:50;3.80;94.00
43999;DHT22;51319;52.162;5.302;2023-04-03T05:56:19;4.10;93.00
43999;DHT22;51319;52.162;5.302;2023-04-03T05:58:49;4.50;92.10
43999;DHT22;51319;52.162;5.302;2023-04-03T06:01:16;4.80;91.00
43999;DHT22;51319;52.162;5.302;2023-04-03T06:03:43;5.00;90.10
43999;DHT22;51319;52.162;5.302;2023-04-03T06:06:15;5.10;88.60
43999;DHT22;51319;52.162;5.302;2023-04-03T06:08:42;5.30;86.70
43999;DHT22;51319;52.162;5.302;2023-04-03T06:11:10;5.30;85.80
43999;DHT22;51319;52.162;5.302;2023-04-03T06:13:44;5.20;85.00
43999;DHT22;51319;52.162;5.302;2023-04-03T06:16:48;5.40;84.60
43999;DHT22;51319;52.162;5.302;2023-04-03T06:19:17;5.40;83.50
43999;DHT22;51319;52.162;5.302;2023-04-03T06:21:45;5.40;82.70
43999;DHT22;51319;52.162;5.302;2023-04-03T06:24:15;5.50;82.20
43999;DHT22;51319;52.162;5.302;2023-04-03T06:26:43;5.80;81.90
43999;DHT22;51319;52.162;5.302;2023-04-03T06:29:10;6.00;80.90
43999;DHT22;51319;52.162;5.302;2023-04-03T06:31:37;6.60;79.20
43999;DHT22;51319;52.162;5.302;2023-04-03T06:34:12;6.80;77.30
43999;DHT22;51319;52.162;5.302;2023-04-03T06:36:40;6.80;76.20
43999;DHT22;51319;52.162;5.302;2023-04-03T06:39:08;6.80;75.70
43999;DHT22;51319;52.162;5.302;2023-04-03T06:41:35;7.30;75.00
43999;DHT22;51319;52.162;5.302;2023-04-03T06:44:02;8.00;73.10
43999;DHT22;51319;52.162;5.302;2023-04-03T06:46:30;8.60;71.20
43999;DHT22;51319;52.162;5.302;2023-04-03T06:48:57;9.10;68.70
43999;DHT22;51319;52.162;5.302;2023-04-03T06:51:28;9.70;67.00
43999;DHT22;51319;52.162;5.302;2023-04-03T06:53:58;10.10;64.50
43999;DHT22;51319;52.162;5.302;2023-04-03T06:56:26;10.50;62.70
43999;DHT22;51319;52.162;5.302;2023-04-03T06:58:54;11.00;61.50
43999;DHT22;51319;52.162;5.302;2023-04-03T07:01:27;11.30;60.00
43999;DHT22;51319;52.162;5.302;2023-04-03T07:03:55;11.60;58.10
43999;DHT22;51319;52.162;5.302;2023-04-03T07:06:22;11.80;58.00
43999;DHT22;51319;52.162;5.302;2023-04-03T07:08:49;11.80;57.00
43999;DHT22;51319;52.162;5.302;2023-04-03T07:11:17;11.90;56.10
43999;DHT22;51319;52.162;5.302;2023-04-03T07:13:44;11.80;55.50
43999;DHT22;51319;52.162;5.302;2023-04-03T07:16:12;12.00;55.80
43999;DHT22;51319;52.162;5.302;2023-04-03T07:18:40;12.30;55.20
43999;DHT22;51319;52.162;5.302;2023-04-03T07:21:08;12.50;54.50
43999;DHT22;51319;52.162;5.302;2023-04-03T07:23:34;12.20;53.40
43999;DHT22;51319;52.162;5.302;2023-04-03T07:26:02;12.00;54.20
43999;DHT22;51319;52.162;5.302;2023-04-03T07:28:28;12.50;54.10
43999;DHT22;51319;52.162;5.302;2023-04-03T07:31:04;13.40;52.70
43999;DHT22;51319;52.162;5.302;2023-04-03T07:33:32;14.20;50.70
43999;DHT22;51319;52.162;5.302;2023-04-03T07:35:59;14.80;48.90
43999;DHT22;51319;52.162;5.302;2023-04-03T07:38:27;15.20;48.10
43999;DHT22;51319;52.162;5.302;2023-04-03T07:40:54;15.80;47.10
43999;DHT22;51319;52.162;5.302;2023-04-03T07:43:22;16.40;46.30
43999;DHT22;51319;52.162;5.302;2023-04-03T07:45:49;16.90;45.00
43999;DHT22;51319;52.162;5.302;2023-04-03T07:48:22;17.30;43.40
43999;DHT22;51319;52.162;5.302;2023-04-03T07:50:49;17.60;42.60
43999;DHT22;51319;52.162;5.302;2023-04-03T07:53:16;17.90;42.10
43999;DHT22;51319;52.162;5.302;2023-04-03T07:55:47;18.20;40.80
43999;DHT22;51319;52.162;5.302;2023-04-03T07:58:17;18.50;39.10
43999;DHT22;51319;52.162;5.302;2023-04-03T08:00:44;18.80;38.10
43999;DHT22;51319;52.162;5.302;2023-04-03T08:03:12;19.00;38.40
43999;DHT22;51319;52.162;5.302;2023-04-03T08:05:44;19.40;38.70
43999;DHT22;51319;52.162;5.302;2023-04-03T08:08:13;19.70;36.60
43999;DHT22;51319;52.162;5.302;2023-04-03T08:10:41;19.90;35.60
43999;DHT22;51319;52.162;5.302;2023-04-03T08:13:08;20.20;35.30
43999;DHT22;51319;52.162;5.302;2023-04-03T08:15:36;20.50;34.90
43999;DHT22;51319;52.162;5.302;2023-04-03T08:18:03;20.80;34.10
43999;DHT22;51319;52.162;5.302;2023-04-03T08:20:30;21.10;34.00
43999;DHT22;51319;52.162;5.302;2023-04-03T08:22:58;21.30;33.30
43999;DHT22;51319;52.162;5.302;2023-04-03T08:25:24;21.50;32.50
43999;DHT22;51319;52.162;5.302;2023-04-03T08:27:52;21.80;32.40
43999;DHT22;51319;52.162;5.302;2023-04-03T08:30:19;22.20;32.00
43999;DHT22;51319;52.162;5.302;2023-04-03T08:32:47;22.50;30.70
43999;DHT22;51319;52.162;5.302;2023-04-03T08:35:14;22.80;30.40
43999;DHT22;51319;52.162;5.302;2023-04-03T08:37:41;22.90;29.30
43999;DHT22;51319;52.162;5.302;2023-04-03T08:40:14;23.20;28.80
43999;DHT22;51319;52.162;5.302;2023-04-03T08:48:11;24.10;28.40
43999;DHT22;51319;52.162;5.302;2023-04-03T08:50:59;24.40;27.80
43999;DHT22;51319;52.162;5.302;2023-04-03T08:53:32;24.50;27.10
43999;DHT22;51319;52.162;5.302;2023-04-03T08:56:02;24.70;27.30
43999;DHT22;51319;52.162;5.302;2023-04-03T08:58:52;24.50;28.00
43999;DHT22;51319;52.162;5.302;2023-04-03T09:01:30;24.70;26.50
43999;DHT22;51319;52.162;5.302;2023-04-03T09:04:01;24.80;25.90
43999;DHT22;51319;52.162;5.302;2023-04-03T09:06:31;25.10;25.80
43999;DHT22;51319;52.162;5.302;2023-04-03T09:16:59;26.30;25.00
43999;DHT22;51319;52.162;5.302;2023-04-03T09:22:41;26.50;24.70
43999;DHT22;51319;52.162;5.302;2023-04-03T09:25:23;26.90;24.80
43999;DHT22;51319;52.162;5.302;2023-04-03T09:27:51;27.10;23.80
43999;DHT22;51319;52.162;5.302;2023-04-03T09:30:22;27.10;23.20
43999;DHT22;51319;52.162;5.302;2023-04-03T09:32:52;27.00;22.50
43999;DHT22;51319;52.162;5.302;2023-04-03T09:35:26;27.10;22.80
43999;DHT22;51319;52.162;5.302;2023-04-03T09:40:41;27.40;22.40
43999;DHT22;51319;52.162;5.302;2023-04-03T09:45:49;27.40;22.60
43999;DHT22;51319;52.162;5.302;2023-04-03T09:48:21;27.60;22.60
43999;DHT22;51319;52.162;5.302;2023-04-03T09:53:29;27.80;22.00
43999;DHT22;51319;52.162;5.302;2023-04-03T09:55:57;28.10;22.40
43999;DHT22;51319;52.162;5.302;2023-04-03T09:58:38;28.20;21.80
43999;DHT22;51319;52.162;5.302;2023-04-03T10:01:29;28.00;21.50
43999;DHT22;51319;52.162;5.302;2023-04-03T10:06:41;28.10;21.70
43999;DHT22;51319;52.162;5.302;2023-04-03T10:14:29;28.50;20.90
43999;DHT22;51319;52.162;5.302;2023-04-03T10:22:18;28.60;20.80
43999;DHT22;51319;52.162;5.302;2023-04-03T10:25:03;28.40;20.50
43999;DHT22;51319;52.162;5.302;2023-04-03T10:27:55;28.30;20.50
43999;DHT22;51319;52.162;5.302;2023-04-03T10:41:41;28.50;21.00
43999;DHT22;51319;52.162;5.302;2023-04-03T10:52:50;29.10;20.70
43999;DHT22;51319;52.162;5.302;2023-04-03T10:55:35;29.00;20.90
43999;DHT22;51319;52.162;5.302;2023-04-03T10:58:06;29.00;20.30
43999;DHT22;51319;52.162;5.302;2023-04-03T11:03:23;28.60;20.60
43999;DHT22;51319;52.162;5.302;2023-04-03T11:05:55;28.60;20.90
43999;DHT22;51319;52.162;5.302;2023-04-03T11:08:46;28.90;21.20
43999;DHT22;51319;52.162;5.302;2023-04-03T11:11:19;29.30;20.60
43999;DHT22;51319;52.162;5.302;2023-04-03T11:14:03;29.20;20.20
43999;DHT22;51319;52.162;5.302;2023-04-03T11:16:40;29.20;20.40
43999;DHT22;51319;52.162;5.302;2023-04-03T11:19:21;29.00;20.60
43999;DHT22;51319;52.162;5.302;2023-04-03T11:22:09;29.10;20.70
43999;DHT22;51319;52.162;5.302;2023-04-03T11:24:41;29.10;20.80
43999;DHT22;51319;52.162;5.302;2023-04-03T11:27:16;29.10;20.40
43999;DHT22;51319;52.162;5.302;2023-04-03T11:29:46;29.00;20.50
43999;DHT22;51319;52.162;5.302;2023-04-03T11:35:05;28.70;21.00
43999;DHT22;51319;52.162;5.302;2023-04-03T11:37:45;28.60;21.10
43999;DHT22;51319;52.162;5.302;2023-04-03T11:40:19;28.60;20.70
43999;DHT22;51319;52.162;5.302;2023-04-03T11:42:52;28.20;21.10
43999;DHT22;51319;52.162;5.302;2023-04-03T11:50:49;28.70;21.10
43999;DHT22;51319;52.162;5.302;2023-04-03T11:58:37;28.70;21.10
43999;DHT22;51319;52.162;5.302;2023-04-03T12:01:11;28.60;21.20
43999;DHT22;51319;52.162;5.302;2023-04-03T12:08:52;28.10;22.00
43999;DHT22;51319;52.162;5.302;2023-04-03T12:11:30;28.30;21.20
43999;DHT22;51319;52.162;5.302;2023-04-03T12:22:11;28.70;21.20
43999;DHT22;51319;52.162;5.302;2023-04-03T12:24:45;28.80;22.10
43999;DHT22;51319;52.162;5.302;2023-04-03T12:27:28;28.80;22.30
43999;DHT22;51319;52.162;5.302;2023-04-03T12:30:21;28.80;21.20
43999;DHT22;51319;52.162;5.302;2023-04-03T12:41:38;29.00;21.30
43999;DHT22;51319;52.162;5.302;2023-04-03T12:44:34;28.70;21.50
43999;DHT22;51319;52.162;5.302;2023-04-03T12:47:00;28.60;21.60
43999;DHT22;51319;52.162;5.302;2023-04-03T12:49:38;28.70;22.10
43999;DHT22;51319;52.162;5.302;2023-04-03T12:52:23;29.00;21.40
43999;DHT22;51319;52.162;5.302;2023-04-03T12:54:56;28.70;20.70
43999;DHT22;51319;52.162;5.302;2023-04-03T12:57:26;28.50;21.20
43999;DHT22;51319;52.162;5.302;2023-04-03T12:59:54;28.40;21.10
43999;DHT22;51319;52.162;5.302;2023-04-03T13:02:25;28.40;21.50
43999;DHT22;51319;52.162;5.302;2023-04-03T13:04:55;28.30;21.50
43999;DHT22;51319;52.162;5.302;2023-04-03T13:07:30;28.10;21.00
43999;DHT22;51319;52.162;5.302;2023-04-03T13:12:46;28.10;20.90
43999;DHT22;51319;52.162;5.302;2023-04-03T13:15:26;27.90;21.10
43999;DHT22;51319;52.162;5.302;2023-04-03T13:17:54;27.50;21.10
43999;DHT22;51319;52.162;5.302;2023-04-03T13:20:25;27.10;21.20
43999;DHT22;51319;52.162;5.302;2023-04-03T13:23:02;26.90;21.30
43999;DHT22;51319;52.162;5.302;2023-04-03T13:25:40;26.70;21.30
43999;DHT22;51319;52.162;5.302;2023-04-03T13:28:11;26.70;21.50
43999;DHT22;51319;52.162;5.302;2023-04-03T13:30:41;26.60;21.80
43999;DHT22;51319;52.162;5.302;2023-04-03T13:33:26;26.50;22.00
43999;DHT22;51319;52.162;5.302;2023-04-03T13:35:57;26.30;21.50
43999;DHT22;51319;52.162;5.302;2023-04-03T13:38:31;25.90;21.50
43999;DHT22;51319;52.162;5.302;2023-04-03T13:41:01;25.60;21.80
43999;DHT22;51319;52.162;5.302;2023-04-03T13:43:36;25.30;22.20
43999;DHT22;51319;52.162;5.302;2023-04-03T13:46:25;25.00;22.00
43999;DHT22;51319;52.162;5.302;2023-04-03T13:48:55;24.70;23.10
43999;DHT22;51319;52.162;5.302;2023-04-03T13:51:27;24.40;22.20
43999;DHT22;51319;52.162;5.302;2023-04-03T13:54:18;24.10;23.10
43999;DHT22;51319;52.162;5.302;2023-04-03T13:56:45;24.10;23.10
43999;DHT22;51319;52.162;5.302;2023-04-03T14:01:51;23.70;23.10
43999;DHT22;51319;52.162;5.302;2023-04-03T14:04:26;23.50;23.70
43999;DHT22;51319;52.162;5.302;2023-04-03T14:06:54;23.30;24.00
43999;DHT22;51319;52.162;5.302;2023-04-03T14:09:23;23.30;24.10
43999;DHT22;51319;52.162;5.302;2023-04-03T14:12:02;23.10;24.10
43999;DHT22;51319;52.162;5.302;2023-04-03T14:14:34;23.00;24.10
43999;DHT22;51319;52.162;5.302;2023-04-03T14:17:14;23.00;24.40
43999;DHT22;51319;52.162;5.302;2023-04-03T14:19:51;22.80;24.60
43999;DHT22;51319;52.162;5.302;2023-04-03T14:22:22;22.70;24.90
43999;DHT22;51319;52.162;5.302;2023-04-03T14:24:50;22.40;24.30
43999;DHT22;51319;52.162;5.302;2023-04-03T14:27:30;22.00;24.90
43999;DHT22;51319;52.162;5.302;2023-04-03T14:30:00;21.70;24.50
43999;DHT22;51319;52.162;5.302;2023-04-03T14:32:29;21.20;24.80
43999;DHT22;51319;52.162;5.302;2023-04-03T14:34:57;20.80;26.10
43999;DHT22;51319;52.162;5.302;2023-04-03T14:37:27;20.40;25.70
43999;DHT22;51319;52.162;5.302;2023-04-03T14:39:58;19.80;26.40
43999;DHT22;51319;52.162;5.302;2023-04-03T14:42:30;19.30;26.60
43999;DHT22;51319;52.162;5.302;2023-04-03T14:44:58;18.80;27.00
43999;DHT22;51319;52.162;5.302;2023-04-03T14:47:27;18.30;27.30
43999;DHT22;51319;52.162;5.302;2023-04-03T14:50:02;17.80;27.60
43999;DHT22;51319;52.162;5.302;2023-04-03T14:52:34;17.30;27.60
43999;DHT22;51319;52.162;5.302;2023-04-03T14:55:04;17.00;28.80
43999;DHT22;51319;52.162;5.302;2023-04-03T14:57:32;16.60;28.40
43999;DHT22;51319;52.162;5.302;2023-04-03T15:00:01;16.30;28.80
43999;DHT22;51319;52.162;5.302;2023-04-03T15:02:34;16.00;28.60
43999;DHT22;51319;52.162;5.302;2023-04-03T15:05:04;15.70;29.30
43999;DHT22;51319;52.162;5.302;2023-04-03T15:07:41;15.40;29.40
43999;DHT22;51319;52.162;5.302;2023-04-03T15:12:47;15.20;30.00
43999;DHT22;51319;52.162;5.302;2023-04-03T15:15:16;15.00;30.90
43999;DHT22;51319;52.162;5.302;2023-04-03T15:17:44;14.90;31.40
43999;DHT22;51319;52.162;5.302;2023-04-03T15:20:22;14.90;31.20
43999;DHT22;51319;52.162;5.302;2023-04-03T15:22:49;14.70;31.20
43999;DHT22;51319;52.162;5.302;2023-04-03T15:25:16;14.50;31.20
43999;DHT22;51319;52.162;5.302;2023-04-03T15:27:45;14.40;31.70
43999;DHT22;51319;52.162;5.302;2023-04-03T15:30:17;14.30;32.60
43999;DHT22;51319;52.162;5.302;2023-04-03T15:32:44;14.20;32.70
43999;DHT22;51319;52.162;5.302;2023-04-03T15:35:12;14.10;33.00
43999;DHT22;51319;52.162;5.302;2023-04-03T15:37:38;14.00;32.40
43999;DHT22;51319;52.162;5.302;2023-04-03T15:40:06;13.70;32.10
43999;DHT22;51319;52.162;5.302;2023-04-03T15:42:34;13.60;32.40
43999;DHT22;51319;52.162;5.302;2023-04-03T15:45:01;13.50;33.10
43999;DHT22;51319;52.162;5.302;2023-04-03T15:47:41;13.40;34.50
43999;DHT22;51319;52.162;5.302;2023-04-03T15:50:09;13.30;34.50
43999;DHT22;51319;52.162;5.302;2023-04-03T15:52:36;13.30;35.20
43999;DHT22;51319;52.162;5.302;2023-04-03T15:55:04;13.20;35.30
43999;DHT22;51319;52.162;5.302;2023-04-03T15:57:31;13.10;35.60
43999;DHT22;51319;52.162;5.302;2023-04-03T15:59:58;13.10;35.20
43999;DHT22;51319;52.162;5.302;2023-04-03T16:02:25;12.90;35.30
43999;DHT22;51319;52.162;5.302;2023-04-03T16:04:54;12.70;35.60
43999;DHT22;51319;52.162;5.302;2023-04-03T16:07:22;12.70;35.80
43999;DHT22;51319;52.162;5.302;2023-04-03T16:09:49;12.70;36.30
43999;DHT22;51319;52.162;5.302;2023-04-03T16:12:19;12.70;36.50
43999;DHT22;51319;52.162;5.302;2023-04-03T16:14:45;12.60;36.90
43999;DHT22;51319;52.162;5.302;2023-04-03T16:17:12;12.50;36.90
43999;DHT22;51319;52.162;5.302;2023-04-03T16:19:39;12.30;36.70
43999;DHT22;51319;52.162;5.302;2023-04-03T16:22:14;12.30;37.10
43999;DHT22;51319;52.162;5.302;2023-04-03T16:24:41;12.20;37.30
43999;DHT22;51319;52.162;5.302;2023-04-03T16:27:08;12.20;37.70
43999;DHT22;51319;52.162;5.302;2023-04-03T16:29:35;12.10;37.60
43999;DHT22;51319;52.162;5.302;2023-04-03T16:32:02;12.10;37.50
43999;DHT22;51319;52.162;5.302;2023-04-03T16:34:29;12.00;38.00
43999;DHT22;51319;52.162;5.302;2023-04-03T16:36:59;11.90;38.00
43999;DHT22;51319;52.162;5.302;2023-04-03T16:39:26;11.80;38.30
43999;DHT22;51319;52.162;5.302;2023-04-03T16:41:53;11.70;38.40
43999;DHT22;51319;52.162;5.302;2023-04-03T16:44:20;11.60;38.70
43999;DHT22;51319;52.162;5.302;2023-04-03T16:46:49;11.60;38.70
43999;DHT22;51319;52.162;5.302;2023-04-03T16:49:16;11.50;38.90
43999;DHT22;51319;52.162;5.302;2023-04-03T16:51:43;11.40;39.40
43999;DHT22;51319;52.162;5.302;2023-04-03T16:54:11;11.30;39.40
43999;DHT22;51319;52.162;5.302;2023-04-03T16:56:40;11.30;39.50
43999;DHT22;51319;52.162;5.302;2023-04-03T16:59:07;11.20;39.60
43999;DHT22;51319;52.162;5.302;2023-04-03T17:01:34;11.10;39.70
43999;DHT22;51319;52.162;5.302;2023-04-03T17:04:01;11.00;39.50
43999;DHT22;51319;52.162;5.302;2023-04-03T17:06:29;10.90;40.00
43999;DHT22;51319;52.162;5.302;2023-04-03T17:08:56;10.90;40.20
43999;DHT22;51319;52.162;5.302;2023-04-03T17:11:23;10.80;40.20
43999;DHT22;51319;52.162;5.302;2023-04-03T17:13:50;10.70;40.30
43999;DHT22;51319;52.162;5.302;2023-04-03T17:16:17;10.70;40.90
43999;DHT22;51319;52.162;5.302;2023-04-03T17:18:45;10.60;40.50
43999;DHT22;51319;52.162;5.302;2023-04-03T17:21:14;10.50;40.40
43999;DHT22;51319;52.162;5.302;2023-04-03T17:23:49;10.40;40.60
43999;DHT22;51319;52.162;5.302;2023-04-03T17:26:17;10.30;41.00
43999;DHT22;51319;52.162;5.302;2023-04-03T17:28:44;10.30;41.20
43999;DHT22;51319;52.162;5.302;2023-04-03T17:31:12;10.20;41.40
43999;DHT22;51319;52.162;5.302;2023-04-03T17:33:43;10.10;41.40
43999;DHT22;51319;52.162;5.302;2023-04-03T17:36:10;10.00;41.60
43999;DHT22;51319;52.162;5.302;2023-04-03T17:38:37;10.00;41.90
43999;DHT22;51319;52.162;5.302;2023-04-03T17:41:07;10.00;42.20
43999;DHT22;51319;52.162;5.302;2023-04-03T17:43:35;9.90;42.90
43999;DHT22;51319;52.162;5.302;2023-04-03T17:46:08;9.80;42.80